createdAt,value
2022-11-04T15:33:17.647Z,8.95
2022-11-04T15:35:45.592Z,10.40
2022-11-04T15:38:14.324Z,7.60
2022-11-04T15:40:42.870Z,8.50
2022-11-04T15:43:10.075Z,9.38
2022-11-04T15:45:38.994Z,9.18
2022-11-04T15:48:27.473Z,9.35
2022-11-04T15:51:12.893Z,7.55
2022-11-04T15:53:49.720Z,20.13
2022-11-04T15:56:18.142Z,16.67
2022-11-04T15:58:46.482Z,22.20
2022-11-04T16:01:15.187Z,15.20
2022-11-04T16:03:48.376Z,9.90
2022-11-04T16:08:24.335Z,12.85
2022-11-04T16:10:52.305Z,14.65
2022-11-04T16:13:24.280Z,9.10
2022-11-04T16:15:54.657Z,8.70
2022-11-04T16:18:24.848Z,9.13
2022-11-04T16:20:54.087Z,8.80
2022-11-04T16:23:25.396Z,9.83
2022-11-04T16:25:57.946Z,10.38
2022-11-04T16:28:25.746Z,8.85
2022-11-04T16:30:58.116Z,9.03
2022-11-04T16:33:25.895Z,9.25
2022-11-04T16:35:53.722Z,10.85
2022-11-04T16:38:23.109Z,8.85
2022-11-04T16:40:51.235Z,9.35
2022-11-04T16:43:22.037Z,8.43
2022-11-04T16:45:53.824Z,11.00
2022-11-04T16:48:23.740Z,11.15
2022-11-04T16:50:51.680Z,9.00
2022-11-04T16:53:19.552Z,10.23
2022-11-04T16:55:48.768Z,9.60
2022-11-04T16:58:19.187Z,8.63
2022-11-04T17:00:47.084Z,10.85
2022-11-04T17:03:21.747Z,10.55
2022-11-04T17:05:50.028Z,8.25
2022-11-04T17:08:17.792Z,8.95
2022-11-04T17:10:45.586Z,11.80
2022-11-04T17:13:14.738Z,10.70
2022-11-04T17:15:42.908Z,9.55
2022-11-04T17:18:11.030Z,10.70
2022-11-04T17:20:40.988Z,8.88
2022-11-04T17:23:09.580Z,9.27
2022-11-04T17:25:37.500Z,12.02
2022-11-04T17:28:05.443Z,10.40
2022-11-04T17:30:34.587Z,9.90
2022-11-04T17:33:06.204Z,11.18
2022-11-04T17:35:35.140Z,10.95
2022-11-04T17:38:02.988Z,9.23
2022-11-04T17:40:31.064Z,10.35
2022-11-04T17:43:16.343Z,9.93
2022-11-04T17:45:45.660Z,10.30
2022-11-04T17:48:14.183Z,10.00
2022-11-04T17:50:42.318Z,10.30
2022-11-04T17:53:10.453Z,9.10
2022-11-04T17:55:40.467Z,13.27
2022-11-04T17:58:08.596Z,12.45
2022-11-04T18:00:36.397Z,9.07
2022-11-04T18:03:06.770Z,11.23
2022-11-04T18:05:34.841Z,12.35
2022-11-04T18:08:02.644Z,10.57
2022-11-04T18:10:30.448Z,12.07
2022-11-04T18:12:57.211Z,8.82
2022-11-04T18:15:25.499Z,10.23
2022-11-04T18:17:53.523Z,9.85
2022-11-04T18:20:23.291Z,10.55
2022-11-04T18:22:51.019Z,12.05
2022-11-04T18:25:19.003Z,10.38
2022-11-04T18:27:48.810Z,9.50
2022-11-04T18:30:16.986Z,10.10
2022-11-04T18:32:44.791Z,11.45
2022-11-04T18:35:12.658Z,15.85
2022-11-04T18:37:46.784Z,16.73
2022-11-04T18:40:15.126Z,12.05
2022-11-04T18:42:42.976Z,13.52
2022-11-04T18:45:11.436Z,10.43
2022-11-04T18:47:39.181Z,11.13
2022-11-04T18:50:07.976Z,13.48
2022-11-04T18:52:35.686Z,11.60
2022-11-04T18:55:05.152Z,11.67
2022-11-04T18:57:32.916Z,10.32
2022-11-04T19:00:01.051Z,12.70
2022-11-04T19:02:29.051Z,13.52
2022-11-04T19:04:56.914Z,12.75
2022-11-04T19:07:24.828Z,11.75
2022-11-04T19:09:54.549Z,15.05
2022-11-04T19:12:40.987Z,16.10
2022-11-04T19:15:09.348Z,13.60
2022-11-04T19:17:37.360Z,13.75
2022-11-04T19:20:11.326Z,14.80
2022-11-04T19:22:40.284Z,13.52
2022-11-04T19:25:08.808Z,15.50
2022-11-04T19:27:38.027Z,21.55
2022-11-04T19:30:06.660Z,16.80
2022-11-04T19:32:34.437Z,18.98
2022-11-04T19:35:02.234Z,22.00
2022-11-04T19:37:31.281Z,18.87
2022-11-04T19:39:59.173Z,20.05
2022-11-04T19:42:44.478Z,19.77
2022-11-04T19:45:13.506Z,19.05
2022-11-04T19:47:41.251Z,18.33
2022-11-04T19:50:09.335Z,20.27
2022-11-04T19:52:37.223Z,18.77
2022-11-04T19:55:05.348Z,18.93
2022-11-04T19:57:33.233Z,18.23
2022-11-04T20:00:01.013Z,19.13
2022-11-04T20:02:30.189Z,18.38
2022-11-04T20:04:58.376Z,17.88
2022-11-04T20:07:26.183Z,16.52
2022-11-04T20:09:54.709Z,13.50
2022-11-04T20:12:40.079Z,17.52
2022-11-04T20:15:09.373Z,19.43
2022-11-04T20:17:38.501Z,19.77
2022-11-04T20:20:07.176Z,20.55
2022-11-04T20:22:34.964Z,21.15
2022-11-04T20:25:02.771Z,23.50
2022-11-04T20:27:31.209Z,21.13
2022-11-04T20:29:58.957Z,23.58
2022-11-04T20:32:26.740Z,24.95
2022-11-04T20:34:55.869Z,23.02
2022-11-04T20:37:25.563Z,23.48
2022-11-04T20:39:53.479Z,23.90
2022-11-04T20:42:21.308Z,27.58
2022-11-04T20:44:49.077Z,22.87
2022-11-04T20:47:17.430Z,22.10
2022-11-04T20:49:45.747Z,24.60
2022-11-04T20:52:15.530Z,23.60
2022-11-04T20:54:43.248Z,19.95
2022-11-04T20:57:11.020Z,22.98
2022-11-04T20:59:38.748Z,22.85
2022-11-04T21:02:06.645Z,20.35
2022-11-04T21:04:36.302Z,21.02
2022-11-04T21:07:04.592Z,20.42
2022-11-04T21:09:33.787Z,22.30
2022-11-04T21:12:01.594Z,24.92
2022-11-04T21:14:31.528Z,22.92
2022-11-04T21:16:59.285Z,19.53
2022-11-04T21:19:27.054Z,22.67
2022-11-04T21:21:54.932Z,21.38
2022-11-04T21:24:22.646Z,23.02
2022-11-04T21:26:51.779Z,21.42
2022-11-04T21:29:20.755Z,22.10
2022-11-04T21:31:49.030Z,19.52
2022-11-04T21:34:17.105Z,18.75
2022-11-04T21:36:45.511Z,20.20
2022-11-04T21:39:13.367Z,20.15
2022-11-04T21:41:41.125Z,20.30
2022-11-04T21:44:11.716Z,19.30
2022-11-04T21:46:39.528Z,21.33
2022-11-04T21:49:07.292Z,20.83
2022-11-04T21:51:35.713Z,24.23
2022-11-04T21:54:06.945Z,23.10
2022-11-04T21:56:35.288Z,21.75
2022-11-04T21:59:03.334Z,22.73
2022-11-04T22:01:32.776Z,22.52
2022-11-04T22:04:01.700Z,23.80
2022-11-04T22:06:34.627Z,20.85
2022-11-04T22:09:04.705Z,21.13
2022-11-04T22:11:34.166Z,24.63
2022-11-04T22:14:03.825Z,27.08
2022-11-04T22:16:34.122Z,24.80
2022-11-04T22:19:03.185Z,27.00
2022-11-04T22:21:31.927Z,24.77
2022-11-04T22:24:00.195Z,23.95
2022-11-04T22:26:29.671Z,24.63
2022-11-04T22:28:57.738Z,23.80
2022-11-04T22:31:27.313Z,25.63
2022-11-04T22:33:56.943Z,25.27
2022-11-04T22:36:24.773Z,25.95
2022-11-04T22:38:52.819Z,24.40
2022-11-04T22:41:22.357Z,24.27
2022-11-04T22:43:50.075Z,24.77
2022-11-04T22:46:20.129Z,26.10
2022-11-04T22:48:48.280Z,23.10
2022-11-04T22:51:17.755Z,26.30
2022-11-04T22:53:48.022Z,24.63
2022-11-04T22:56:17.833Z,23.52
2022-11-04T22:58:45.578Z,23.17
2022-11-04T23:01:15.706Z,22.88
2022-11-04T23:03:43.788Z,24.52
2022-11-04T23:06:11.688Z,23.30
2022-11-04T23:08:42.328Z,23.85
2022-11-04T23:11:30.251Z,22.80
2022-11-04T23:14:20.453Z,22.42
2022-11-04T23:17:08.615Z,22.45
2022-11-04T23:19:36.522Z,21.58
2022-11-04T23:22:21.548Z,22.85
2022-11-04T23:25:10.354Z,20.42
2022-11-04T23:27:58.069Z,22.42
2022-11-04T23:30:27.428Z,22.80
2022-11-04T23:32:56.349Z,23.17
2022-11-04T23:35:42.646Z,25.88
2022-11-04T23:38:10.759Z,20.77
2022-11-04T23:40:40.299Z,21.83
2022-11-04T23:43:08.379Z,21.77
2022-11-04T23:45:54.021Z,20.13
2022-11-04T23:48:39.313Z,17.97
2022-11-04T23:51:24.758Z,21.40
2022-11-04T23:54:10.305Z,21.63
2022-11-04T23:56:56.835Z,23.67
2022-11-04T23:59:42.012Z,19.10
